createdAt,value
2024-05-09T00:00:56.505Z,15.46
2024-05-09T00:01:57.522Z,15.47
2024-05-09T00:02:58.946Z,15.42
2024-05-09T00:03:59.876Z,15.40
2024-05-09T00:05:00.949Z,15.42
2024-05-09T00:06:02.155Z,15.41
2024-05-09T00:07:03.214Z,15.44
2024-05-09T00:08:04.972Z,15.41
2024-05-09T00:09:05.872Z,15.37
2024-05-09T00:10:11.686Z,15.35
2024-05-09T00:11:19.503Z,15.33
2024-05-09T00:12:20.550Z,15.33
2024-05-09T00:13:21.526Z,15.32
2024-05-09T00:14:22.489Z,15.33
2024-05-09T00:15:23.363Z,15.31
2024-05-09T00:16:24.274Z,15.31
2024-05-09T00:17:25.281Z,15.31
2024-05-09T00:18:26.378Z,15.31
2024-05-09T00:19:27.557Z,15.29
2024-05-09T00:20:36.452Z,15.29
2024-05-09T00:21:42.147Z,15.30
2024-05-09T00:22:43.015Z,15.29
2024-05-09T00:23:43.949Z,15.30
2024-05-09T00:24:44.799Z,15.31
2024-05-09T00:25:48.351Z,15.29
2024-05-09T00:26:49.231Z,15.27
2024-05-09T00:27:50.068Z,15.29
2024-05-09T00:28:51.069Z,15.28
2024-05-09T00:29:52.016Z,15.27
2024-05-09T00:30:52.849Z,15.28
2024-05-09T00:31:53.761Z,15.28
2024-05-09T00:32:54.754Z,15.27
2024-05-09T00:33:55.815Z,15.27
2024-05-09T00:34:56.876Z,15.26
2024-05-09T00:35:57.777Z,15.24
2024-05-09T00:36:58.611Z,15.24
2024-05-09T00:37:59.772Z,15.23
2024-05-09T00:39:00.809Z,15.25
2024-05-09T00:40:01.675Z,15.22
2024-05-09T00:41:02.584Z,15.24
2024-05-09T00:42:03.664Z,15.20
2024-05-09T00:43:07.121Z,15.25
2024-05-09T00:44:08.128Z,15.24
2024-05-09T00:45:09.030Z,15.26
2024-05-09T00:46:09.884Z,15.26
2024-05-09T00:47:10.846Z,15.27
2024-05-09T00:48:14.048Z,15.26
2024-05-09T00:49:17.288Z,15.28
2024-05-09T00:50:23.032Z,15.26
2024-05-09T00:51:30.687Z,15.23
2024-05-09T00:52:31.578Z,15.22
2024-05-09T00:53:32.659Z,15.21
2024-05-09T00:54:33.564Z,15.20
2024-05-09T00:55:34.560Z,15.18
2024-05-09T00:56:35.485Z,15.17
2024-05-09T00:57:36.373Z,15.17
2024-05-09T00:58:37.229Z,15.18
2024-05-09T00:59:38.195Z,15.17
2024-05-09T01:00:41.023Z,15.15
2024-05-09T01:01:42.698Z,15.15
2024-05-09T01:02:43.814Z,15.13
2024-05-09T01:03:46.487Z,15.09
2024-05-09T01:04:49.231Z,15.10
2024-05-09T01:05:50.991Z,15.11
2024-05-09T01:06:52.076Z,15.10
2024-05-09T01:07:52.962Z,15.08
2024-05-09T01:08:53.828Z,15.08
2024-05-09T01:09:54.664Z,15.09
2024-05-09T01:10:55.634Z,15.06
2024-05-09T01:11:56.638Z,15.05
2024-05-09T01:12:57.502Z,15.05
2024-05-09T01:13:58.375Z,15.02
2024-05-09T01:14:59.226Z,14.99
2024-05-09T01:16:00.100Z,15.01
2024-05-09T01:17:00.988Z,15.04
2024-05-09T01:18:05.762Z,15.01
2024-05-09T01:19:09.434Z,14.98
2024-05-09T01:20:12.998Z,14.98
2024-05-09T01:21:20.736Z,15.02
2024-05-09T01:22:21.616Z,14.99
2024-05-09T01:23:22.553Z,14.96
2024-05-09T01:24:23.439Z,14.93
2024-05-09T01:25:24.268Z,14.93
2024-05-09T01:26:25.205Z,14.91
2024-05-09T01:27:26.105Z,14.92
2024-05-09T01:28:26.934Z,14.89
2024-05-09T01:29:27.865Z,14.89
2024-05-09T01:30:34.434Z,14.89
2024-05-09T01:31:37.646Z,14.90
2024-05-09T01:32:38.639Z,14.90
2024-05-09T01:33:39.910Z,14.90
2024-05-09T01:34:40.899Z,14.89
2024-05-09T01:35:42.773Z,14.86
2024-05-09T01:36:44.090Z,14.88
2024-05-09T01:37:45.035Z,14.83
2024-05-09T01:38:45.920Z,14.86
2024-05-09T01:39:46.776Z,14.85
2024-05-09T01:40:47.727Z,14.82
2024-05-09T01:41:48.566Z,14.83
2024-05-09T01:42:49.397Z,14.82
2024-05-09T01:43:50.329Z,14.79
2024-05-09T01:44:51.163Z,14.83
2024-05-09T01:45:52.001Z,14.82
2024-05-09T01:46:52.881Z,14.82
2024-05-09T01:47:53.904Z,14.81
2024-05-09T01:48:55.035Z,14.80
2024-05-09T01:49:56.044Z,14.79
2024-05-09T01:50:56.929Z,14.77
2024-05-09T01:51:57.835Z,14.77
2024-05-09T01:52:58.711Z,14.78
2024-05-09T01:53:59.576Z,14.77
2024-05-09T01:55:03.518Z,14.74
2024-05-09T01:56:07.217Z,14.73
2024-05-09T01:57:08.089Z,14.74
2024-05-09T01:58:09.103Z,14.74
2024-05-09T01:59:10.071Z,14.75
2024-05-09T02:01:13.738Z,14.75
2024-05-09T02:02:14.917Z,14.74
2024-05-09T02:03:17.668Z,14.76
2024-05-09T02:04:19.300Z,14.76
2024-05-09T02:05:20.431Z,14.79
2024-05-09T02:06:21.290Z,14.76
2024-05-09T02:07:22.174Z,14.77
2024-05-09T02:08:23.091Z,14.76
2024-05-09T02:09:24.688Z,14.76
2024-05-09T02:10:32.058Z,14.75
2024-05-09T02:11:41.421Z,14.75
2024-05-09T02:12:42.341Z,14.75
2024-05-09T02:13:43.251Z,14.74
2024-05-09T02:14:44.140Z,14.74
2024-05-09T02:15:45.146Z,14.74
2024-05-09T02:16:46.762Z,14.76
2024-05-09T02:17:47.888Z,14.75
2024-05-09T02:18:49.041Z,14.70
2024-05-09T02:19:50.055Z,14.68
2024-05-09T02:20:50.938Z,14.72
2024-05-09T02:21:51.831Z,14.72
2024-05-09T02:22:52.892Z,14.67
2024-05-09T02:23:53.760Z,14.68
2024-05-09T02:24:54.588Z,14.65
2024-05-09T02:25:55.487Z,14.67
2024-05-09T02:26:56.373Z,14.64
2024-05-09T02:27:57.258Z,14.65
2024-05-09T02:28:58.563Z,14.64
2024-05-09T02:29:59.406Z,14.65
2024-05-09T02:31:00.294Z,14.65
2024-05-09T02:32:01.340Z,14.65
2024-05-09T02:33:02.395Z,14.64
2024-05-09T02:34:03.594Z,14.65
2024-05-09T02:35:04.892Z,14.65
2024-05-09T02:36:06.061Z,14.61
2024-05-09T02:37:06.954Z,14.62
2024-05-09T02:38:10.980Z,14.60
2024-05-09T02:39:11.999Z,14.60
2024-05-09T02:40:14.986Z,14.58
2024-05-09T02:41:19.220Z,14.60
2024-05-09T02:42:20.070Z,14.60
2024-05-09T02:43:20.907Z,14.58
2024-05-09T02:44:21.774Z,14.60
2024-05-09T02:45:23.785Z,14.62
2024-05-09T02:46:24.624Z,14.60
2024-05-09T02:47:25.613Z,14.60
2024-05-09T02:48:26.769Z,14.60
2024-05-09T02:49:27.835Z,14.61
2024-05-09T02:50:34.335Z,14.57
2024-05-09T02:51:39.513Z,14.57
2024-05-09T02:52:40.342Z,14.56
2024-05-09T02:53:41.247Z,14.56
2024-05-09T02:54:42.131Z,14.58
2024-05-09T02:55:43.430Z,14.57
2024-05-09T02:56:44.377Z,14.58
2024-05-09T02:57:45.220Z,14.57
2024-05-09T02:58:46.081Z,14.57
2024-05-09T02:59:46.936Z,14.54
2024-05-09T03:00:47.811Z,14.54
2024-05-09T03:01:48.790Z,14.54
2024-05-09T03:02:49.858Z,14.55
2024-05-09T03:03:51.274Z,14.55
2024-05-09T03:04:52.532Z,14.54
2024-05-09T03:05:53.430Z,14.55
2024-05-09T03:06:54.268Z,14.53
2024-05-09T03:07:55.159Z,14.56
2024-05-09T03:08:56.012Z,14.55
2024-05-09T03:09:56.848Z,14.55
2024-05-09T03:10:57.717Z,14.53
2024-05-09T03:11:58.783Z,14.53
2024-05-09T03:12:59.697Z,14.54
2024-05-09T03:14:00.643Z,14.53
2024-05-09T03:15:01.517Z,14.55
2024-05-09T03:16:02.392Z,14.55
2024-05-09T03:17:03.314Z,14.54
2024-05-09T03:18:04.952Z,14.52
2024-05-09T03:19:06.081Z,14.51
2024-05-09T03:20:16.996Z,14.51
2024-05-09T03:21:21.480Z,14.50
2024-05-09T03:22:22.327Z,14.49
2024-05-09T03:23:23.191Z,14.50
2024-05-09T03:24:24.056Z,14.47
2024-05-09T03:25:24.955Z,14.48
2024-05-09T03:26:25.923Z,14.49
2024-05-09T03:27:26.866Z,14.49
2024-05-09T03:28:27.710Z,14.47
2024-05-09T03:29:28.659Z,14.49
2024-05-09T03:30:38.107Z,14.48
2024-05-09T03:31:42.606Z,14.51
2024-05-09T03:32:43.640Z,14.49
2024-05-09T03:33:44.800Z,14.50
2024-05-09T03:34:45.850Z,14.48
2024-05-09T03:35:47.374Z,14.48
2024-05-09T03:36:48.387Z,14.48
2024-05-09T03:37:49.231Z,14.50
2024-05-09T03:38:50.090Z,14.49
2024-05-09T03:39:51.220Z,14.49
2024-05-09T03:40:52.108Z,14.48
2024-05-09T03:41:52.971Z,14.45
2024-05-09T03:42:53.796Z,14.47
2024-05-09T03:43:54.663Z,14.43
2024-05-09T03:44:56.829Z,14.45
2024-05-09T03:45:57.692Z,14.43
2024-05-09T03:46:58.574Z,14.44
2024-05-09T03:47:59.670Z,14.46
2024-05-09T03:49:00.753Z,14.45
2024-05-09T03:50:01.857Z,14.47
2024-05-09T03:51:03.181Z,14.45
2024-05-09T03:52:04.457Z,14.45
2024-05-09T03:53:09.498Z,14.45
2024-05-09T03:54:10.373Z,14.44
2024-05-09T03:55:11.221Z,14.42
2024-05-09T03:56:12.112Z,14.44
2024-05-09T03:57:13.052Z,14.43
2024-05-09T03:58:13.896Z,14.43
2024-05-09T03:59:14.752Z,14.42
2024-05-09T04:00:22.101Z,14.41
2024-05-09T04:01:28.858Z,14.39
2024-05-09T04:02:29.852Z,14.43
2024-05-09T04:03:30.887Z,14.41
2024-05-09T04:04:32.014Z,14.43
2024-05-09T04:05:33.191Z,14.43
2024-05-09T04:06:34.143Z,14.44
2024-05-09T04:07:36.486Z,14.44
2024-05-09T04:08:37.521Z,14.48
2024-05-09T04:09:38.478Z,14.47
2024-05-09T04:10:39.851Z,14.45
2024-05-09T04:11:40.839Z,14.49
2024-05-09T04:12:45.007Z,14.49
2024-05-09T04:13:45.897Z,14.46
2024-05-09T04:14:46.777Z,14.50
2024-05-09T04:15:47.624Z,14.49
2024-05-09T04:16:48.491Z,14.52
2024-05-09T04:17:50.362Z,14.53
2024-05-09T04:18:51.418Z,14.52
2024-05-09T04:19:52.305Z,14.53
2024-05-09T04:20:53.292Z,14.54
2024-05-09T04:21:54.132Z,14.54
2024-05-09T04:22:55.007Z,14.55
2024-05-09T04:23:55.855Z,14.56
2024-05-09T04:24:56.727Z,14.58
2024-05-09T04:25:57.602Z,14.57
2024-05-09T04:26:58.466Z,14.61
2024-05-09T04:27:59.290Z,14.57
2024-05-09T04:29:00.163Z,14.58
2024-05-09T04:30:01.022Z,14.60
2024-05-09T04:31:01.869Z,14.59
2024-05-09T04:32:03.956Z,14.60
2024-05-09T04:33:05.237Z,14.60
2024-05-09T04:34:06.536Z,14.63
2024-05-09T04:35:07.564Z,14.63
2024-05-09T04:36:08.497Z,14.62
2024-05-09T04:37:09.351Z,14.64
2024-05-09T04:38:13.843Z,14.65
2024-05-09T04:39:15.310Z,14.64
2024-05-09T04:40:24.296Z,14.65
2024-05-09T04:41:32.297Z,14.65
2024-05-09T04:42:33.180Z,14.67
2024-05-09T04:43:34.225Z,14.67
2024-05-09T04:44:35.264Z,14.67
2024-05-09T04:45:36.128Z,14.70
2024-05-09T04:46:38.672Z,14.72
2024-05-09T04:47:39.642Z,14.74
2024-05-09T04:48:40.707Z,14.73
2024-05-09T04:49:41.776Z,14.75
2024-05-09T04:50:42.803Z,14.76
2024-05-09T04:51:43.774Z,14.74
2024-05-09T04:52:44.669Z,14.76
2024-05-09T04:53:45.600Z,14.75
2024-05-09T04:54:46.455Z,14.78
2024-05-09T04:55:47.446Z,14.76
2024-05-09T04:56:48.391Z,14.77
2024-05-09T04:57:54.638Z,14.79
2024-05-09T04:58:55.508Z,14.72
2024-05-09T04:59:56.900Z,14.71
2024-05-09T05:00:57.738Z,14.77
2024-05-09T05:01:58.710Z,14.77
2024-05-09T05:02:59.927Z,14.77
2024-05-09T05:04:01.052Z,14.82
2024-05-09T05:05:02.519Z,14.85
2024-05-09T05:06:03.597Z,14.87
2024-05-09T05:07:04.706Z,14.90
2024-05-09T05:08:10.457Z,14.92
2024-05-09T05:09:11.330Z,14.95
2024-05-09T05:10:17.900Z,14.94
2024-05-09T05:11:26.048Z,14.97
2024-05-09T05:12:45.666Z,14.99
2024-05-09T05:13:46.507Z,15.01
2024-05-09T05:14:47.343Z,15.02
2024-05-09T05:15:49.230Z,15.04
2024-05-09T05:16:50.175Z,15.07
2024-05-09T05:17:51.262Z,15.09
2024-05-09T05:18:52.382Z,15.08
2024-05-09T05:19:53.505Z,15.09
2024-05-09T05:20:54.519Z,15.10
2024-05-09T05:21:55.387Z,15.10
2024-05-09T05:22:56.248Z,15.09
2024-05-09T05:23:57.096Z,15.09
2024-05-09T05:24:57.966Z,15.13
2024-05-09T05:25:58.846Z,15.15
2024-05-09T05:26:59.690Z,15.12
2024-05-09T05:28:03.555Z,15.15
2024-05-09T05:29:04.510Z,15.14
2024-05-09T05:30:07.535Z,15.16
2024-05-09T05:31:10.378Z,15.18
2024-05-09T05:32:11.483Z,15.18
2024-05-09T05:33:13.172Z,15.19
2024-05-09T05:34:14.304Z,15.21
2024-05-09T05:35:15.167Z,15.20
2024-05-09T05:36:15.998Z,15.19
2024-05-09T05:37:16.824Z,15.23
2024-05-09T05:38:17.974Z,15.27
2024-05-09T05:39:18.936Z,15.29
2024-05-09T05:40:28.170Z,15.27
2024-05-09T05:41:36.329Z,15.29
2024-05-09T05:42:37.180Z,15.30
2024-05-09T05:43:38.052Z,15.31
2024-05-09T05:44:38.906Z,15.30
2024-05-09T05:45:39.790Z,15.35
2024-05-09T05:46:40.664Z,15.37
2024-05-09T05:47:42.146Z,15.40
2024-05-09T05:48:43.303Z,15.41
2024-05-09T05:49:44.304Z,15.36
2024-05-09T05:50:45.291Z,15.42
2024-05-09T05:51:46.201Z,15.42
2024-05-09T05:52:47.122Z,15.46
2024-05-09T05:53:48.084Z,15.48
2024-05-09T05:54:50.593Z,15.49
2024-05-09T05:55:51.536Z,15.52
2024-05-09T05:56:52.429Z,15.55
2024-05-09T05:57:53.288Z,15.51
2024-05-09T05:58:54.200Z,15.57
2024-05-09T05:59:55.039Z,15.58
2024-05-09T06:00:56.349Z,15.56
2024-05-09T06:01:57.305Z,15.60
2024-05-09T06:02:58.251Z,15.61
2024-05-09T06:04:00.766Z,15.64
2024-05-09T06:05:02.064Z,15.66
2024-05-09T06:06:03.067Z,15.69
2024-05-09T06:07:04.233Z,15.72
2024-05-09T06:08:05.528Z,15.75
2024-05-09T06:09:06.443Z,15.77
2024-05-09T06:10:14.232Z,15.81
2024-05-09T06:11:21.992Z,15.83
2024-05-09T06:12:23.152Z,15.85
2024-05-09T06:13:24.092Z,15.88
2024-05-09T06:14:24.989Z,15.93
2024-05-09T06:15:26.231Z,15.93
2024-05-09T06:16:27.081Z,15.95
2024-05-09T06:17:28.084Z,15.97
2024-05-09T06:18:29.303Z,16.02
2024-05-09T06:19:30.474Z,16.04
2024-05-09T06:20:35.972Z,16.04
2024-05-09T06:21:38.844Z,16.09
2024-05-09T06:22:39.679Z,16.10
2024-05-09T06:23:46.699Z,16.14
2024-05-09T06:24:47.621Z,16.19
2024-05-09T06:25:48.545Z,16.21
2024-05-09T06:26:49.445Z,16.22
2024-05-09T06:27:50.309Z,16.25
2024-05-09T06:28:51.223Z,16.27
2024-05-09T06:29:52.094Z,16.28
2024-05-09T06:30:52.974Z,16.32
2024-05-09T06:31:55.422Z,16.33
2024-05-09T06:32:57.569Z,16.34
2024-05-09T06:33:58.686Z,16.35
2024-05-09T06:34:59.599Z,16.40
2024-05-09T06:36:00.457Z,16.46
2024-05-09T06:37:01.288Z,16.49
2024-05-09T06:38:02.497Z,16.50
2024-05-09T06:39:03.606Z,16.50
2024-05-09T06:40:07.186Z,16.51
2024-05-09T06:41:08.265Z,16.55
2024-05-09T06:42:09.104Z,16.56
2024-05-09T06:43:13.673Z,16.57
2024-05-09T06:44:14.712Z,16.57
2024-05-09T06:45:15.554Z,16.61
2024-05-09T06:46:16.378Z,16.64
2024-05-09T06:47:17.292Z,16.67
2024-05-09T06:48:18.801Z,16.67
2024-05-09T06:49:20.277Z,16.69
2024-05-09T06:50:28.187Z,16.71
2024-05-09T06:51:35.420Z,16.72
2024-05-09T06:52:36.276Z,16.75
2024-05-09T06:53:38.401Z,16.72
2024-05-09T06:54:39.243Z,16.75
2024-05-09T06:55:40.126Z,16.76
2024-05-09T06:56:41.028Z,16.80
2024-05-09T06:57:43.155Z,16.78
2024-05-09T06:58:44.121Z,16.83
2024-05-09T06:59:45.025Z,16.82
2024-05-09T07:00:45.926Z,16.80
2024-05-09T07:01:46.788Z,16.87
2024-05-09T07:02:47.980Z,16.90
2024-05-09T07:03:49.005Z,16.89
2024-05-09T07:04:49.945Z,16.89
2024-05-09T07:05:50.896Z,16.96
2024-05-09T07:06:51.758Z,16.93
2024-05-09T07:07:52.656Z,16.95
2024-05-09T07:08:53.622Z,17.00
2024-05-09T07:09:54.468Z,17.01
2024-05-09T07:10:55.583Z,17.04
2024-05-09T07:11:56.723Z,17.05
2024-05-09T07:12:57.620Z,17.07
2024-05-09T07:13:58.564Z,17.07
2024-05-09T07:14:59.450Z,17.10
2024-05-09T07:16:00.292Z,17.06
2024-05-09T07:17:01.313Z,17.11
2024-05-09T07:18:09.516Z,17.13
2024-05-09T07:19:10.689Z,17.13
2024-05-09T07:20:19.479Z,17.11
2024-05-09T07:21:24.284Z,17.10
2024-05-09T07:22:27.463Z,17.11
2024-05-09T07:23:28.415Z,17.13
2024-05-09T07:24:29.277Z,17.11
2024-05-09T07:25:30.462Z,17.08
2024-05-09T07:26:31.597Z,17.18
2024-05-09T07:27:33.252Z,17.14
2024-05-09T07:28:34.088Z,17.13
2024-05-09T07:29:38.367Z,17.16
2024-05-09T07:30:39.806Z,17.19
2024-05-09T07:31:40.660Z,17.22
2024-05-09T07:32:43.831Z,17.26
2024-05-09T07:33:44.939Z,17.27
2024-05-09T07:34:45.894Z,17.28
2024-05-09T07:35:46.793Z,17.28
2024-05-09T07:36:48.523Z,17.32
2024-05-09T07:37:49.403Z,17.31
2024-05-09T07:38:50.299Z,17.35
2024-05-09T07:39:51.213Z,17.35
2024-05-09T07:40:52.117Z,17.40
2024-05-09T07:41:54.183Z,17.41
2024-05-09T07:42:55.026Z,17.47
2024-05-09T07:43:55.888Z,17.51
2024-05-09T07:45:00.986Z,17.48
2024-05-09T07:47:14.031Z,17.50
2024-05-09T07:48:57.510Z,17.57
2024-05-09T07:51:32.967Z,17.63
2024-05-09T07:53:30.109Z,17.72
2024-05-09T07:53:46.160Z,17.78
2024-05-09T07:54:50.611Z,17.79
2024-05-09T07:55:51.687Z,17.85
2024-05-09T07:56:52.958Z,17.87
2024-05-09T07:57:54.081Z,17.93
2024-05-09T07:58:54.958Z,17.94
2024-05-09T07:59:55.811Z,17.95
2024-05-09T08:00:56.799Z,17.97
2024-05-09T08:01:57.834Z,18.06
2024-05-09T08:02:58.768Z,18.06
2024-05-09T08:03:59.740Z,18.09
2024-05-09T08:05:00.846Z,18.08
2024-05-09T08:06:01.758Z,18.05
2024-05-09T08:07:02.700Z,18.09
2024-05-09T08:08:03.804Z,18.15
2024-05-09T08:09:08.224Z,18.19
2024-05-09T08:10:21.958Z,18.20
2024-05-09T08:11:25.663Z,18.21
2024-05-09T08:12:26.556Z,18.25
2024-05-09T08:13:27.428Z,18.29
2024-05-09T08:14:28.275Z,18.31
2024-05-09T08:15:29.393Z,18.34
2024-05-09T08:16:30.352Z,18.36
2024-05-09T08:17:31.296Z,18.37
2024-05-09T08:18:32.508Z,18.39
2024-05-09T08:19:35.324Z,18.40
2024-05-09T08:20:37.028Z,18.43
2024-05-09T08:21:37.883Z,18.41
2024-05-09T08:22:38.765Z,18.45
2024-05-09T08:23:39.631Z,18.47
2024-05-09T08:24:41.480Z,18.46
2024-05-09T08:25:42.538Z,18.47
2024-05-09T08:26:43.381Z,18.51
2024-05-09T08:27:45.000Z,18.51
2024-05-09T08:28:46.066Z,18.54
2024-05-09T08:29:46.937Z,18.53
2024-05-09T08:30:47.979Z,18.54
2024-05-09T08:31:48.951Z,18.54
2024-05-09T08:32:49.872Z,18.56
2024-05-09T08:33:54.153Z,18.53
2024-05-09T08:34:55.142Z,18.54
2024-05-09T08:35:55.990Z,18.57
2024-05-09T08:36:59.528Z,18.59
2024-05-09T08:38:03.224Z,18.54
2024-05-09T08:39:04.215Z,18.54
2024-05-09T08:40:08.482Z,18.55
2024-05-09T08:41:12.514Z,18.55
2024-05-09T08:42:14.157Z,18.53
2024-05-09T08:43:15.159Z,18.51
2024-05-09T08:44:19.822Z,18.53
2024-05-09T08:45:20.938Z,18.57
2024-05-09T08:46:21.899Z,18.55
2024-05-09T08:47:27.694Z,18.58
2024-05-09T08:48:28.763Z,18.62
2024-05-09T08:49:29.886Z,18.65
2024-05-09T08:50:37.884Z,18.67
2024-05-09T08:51:40.759Z,18.77
2024-05-09T08:52:41.631Z,18.78
2024-05-09T08:53:42.461Z,18.82
2024-05-09T08:54:43.936Z,18.94
2024-05-09T08:55:45.098Z,19.03
2024-05-09T08:56:45.970Z,19.21
2024-05-09T08:57:46.861Z,19.32
2024-05-09T08:58:50.866Z,19.38
2024-05-09T08:59:51.785Z,19.53
2024-05-09T09:00:52.821Z,19.64
2024-05-09T09:01:53.892Z,19.67
2024-05-09T09:02:54.871Z,19.69
2024-05-09T09:04:02.899Z,19.67
2024-05-09T09:05:10.155Z,19.70
2024-05-09T09:06:13.368Z,19.71
2024-05-09T09:07:14.252Z,19.66
2024-05-09T09:08:15.177Z,19.65
2024-05-09T09:09:16.013Z,19.56
2024-05-09T09:10:29.145Z,19.53
2024-05-09T09:11:32.667Z,19.50
2024-05-09T09:12:34.026Z,19.49
2024-05-09T09:13:34.961Z,19.47
2024-05-09T09:14:35.811Z,19.42
2024-05-09T09:15:48.946Z,19.36
2024-05-09T09:16:50.767Z,19.36
2024-05-09T09:17:58.167Z,19.33
2024-05-09T09:18:59.232Z,19.39
2024-05-09T09:20:00.613Z,19.37
2024-05-09T09:21:02.000Z,19.36
2024-05-09T09:22:02.930Z,19.35
2024-05-09T09:23:04.334Z,19.39
2024-05-09T09:24:09.760Z,19.45
2024-05-09T09:25:10.903Z,19.49
2024-05-09T09:26:15.645Z,19.51
2024-05-09T09:27:16.513Z,19.66
2024-05-09T09:28:17.533Z,19.74
2024-05-09T09:29:19.592Z,19.89
2024-05-09T09:30:31.835Z,20.25
2024-05-09T09:31:38.204Z,20.63
2024-05-09T09:32:39.104Z,20.73
2024-05-09T09:33:45.702Z,20.69
2024-05-09T09:34:46.906Z,20.87
2024-05-09T09:35:47.790Z,21.07
2024-05-09T09:36:48.650Z,21.21
2024-05-09T09:37:49.901Z,21.22
2024-05-09T09:38:50.939Z,21.25
2024-05-09T09:39:51.915Z,21.44
2024-05-09T09:40:52.836Z,21.78
2024-05-09T09:41:55.034Z,21.86
2024-05-09T09:42:56.639Z,21.93
2024-05-09T09:43:57.519Z,22.02
2024-05-09T09:45:04.665Z,22.05
2024-05-09T09:46:08.615Z,22.29
2024-05-09T09:47:11.494Z,22.38
2024-05-09T09:48:13.668Z,22.28
2024-05-09T09:49:15.928Z,22.26
2024-05-09T09:50:23.850Z,22.32
2024-05-09T09:51:28.935Z,22.47
2024-05-09T09:52:29.839Z,22.42
2024-05-09T09:53:33.870Z,22.49
2024-05-09T09:54:34.718Z,22.69
2024-05-09T09:55:36.319Z,22.85
2024-05-09T09:56:37.975Z,22.77
2024-05-09T09:57:39.159Z,22.75
2024-05-09T09:58:40.050Z,22.60
2024-05-09T09:59:42.284Z,22.54
2024-05-09T10:00:43.641Z,22.53
2024-05-09T10:01:45.096Z,22.56
2024-05-09T10:02:46.041Z,22.59
2024-05-09T10:03:47.090Z,22.62
2024-05-09T10:04:48.219Z,22.76
2024-05-09T10:05:49.204Z,22.77
2024-05-09T10:06:52.213Z,22.75
2024-05-09T10:07:53.097Z,22.76
2024-05-09T10:08:53.938Z,22.78
2024-05-09T10:09:55.402Z,22.83
2024-05-09T10:10:56.389Z,22.91
2024-05-09T10:13:07.772Z,22.91
2024-05-09T10:14:09.019Z,22.93
2024-05-09T10:15:10.051Z,23.01
2024-05-09T10:16:11.280Z,22.98
2024-05-09T10:17:12.332Z,22.86
2024-05-09T10:18:13.982Z,22.92
2024-05-09T10:19:27.602Z,22.98
2024-05-09T10:20:40.703Z,23.08
2024-05-09T10:21:47.558Z,23.16
2024-05-09T10:22:49.407Z,23.22
2024-05-09T10:23:57.652Z,23.25
2024-05-09T10:25:05.871Z,23.45
2024-05-09T10:26:06.734Z,23.50
2024-05-09T10:27:07.620Z,23.57
2024-05-09T10:28:11.062Z,23.62
2024-05-09T10:29:15.955Z,23.60
2024-05-09T10:30:26.142Z,23.61
2024-05-09T10:31:34.298Z,23.71
2024-05-09T10:32:38.462Z,23.71
2024-05-09T10:33:40.622Z,23.83
2024-05-09T10:34:42.956Z,23.76
2024-05-09T10:35:50.518Z,23.72
2024-05-09T10:36:52.153Z,23.76
2024-05-09T10:37:55.467Z,23.70
2024-05-09T10:38:56.294Z,23.71
2024-05-09T10:39:57.347Z,23.66
2024-05-09T10:41:01.155Z,23.68
2024-05-09T10:42:02.058Z,23.72
2024-05-09T10:43:05.828Z,23.71
2024-05-09T10:44:10.958Z,23.72
2024-05-09T10:45:12.256Z,23.81
2024-05-09T10:46:17.638Z,23.86
2024-05-09T10:47:19.147Z,23.88
2024-05-09T10:48:20.096Z,24.02
2024-05-09T10:49:21.105Z,24.08
2024-05-09T10:50:28.355Z,24.14
2024-05-09T10:51:32.798Z,24.31
2024-05-09T10:52:33.651Z,24.39
2024-05-09T10:53:41.335Z,24.56
2024-05-09T10:54:42.236Z,24.59
2024-05-09T10:55:43.089Z,24.68
2024-05-09T10:56:43.932Z,24.62
2024-05-09T10:57:44.764Z,24.75
2024-05-09T10:58:48.582Z,24.74
2024-05-09T10:59:49.419Z,24.78
2024-05-09T11:00:50.462Z,24.75
2024-05-09T11:01:51.487Z,24.80
2024-05-09T11:02:52.456Z,24.83
2024-05-09T11:03:53.560Z,24.86
2024-05-09T11:04:54.710Z,24.79
2024-05-09T11:05:55.755Z,24.80
2024-05-09T11:06:56.646Z,24.85
2024-05-09T11:07:57.737Z,24.82
2024-05-09T11:08:58.578Z,24.85
2024-05-09T11:10:00.546Z,24.84
2024-05-09T11:11:03.605Z,24.80
2024-05-09T11:12:04.706Z,24.67
2024-05-09T11:13:05.649Z,24.61
2024-05-09T11:14:12.554Z,24.54
2024-05-09T11:15:15.352Z,24.49
2024-05-09T11:16:19.607Z,24.42
2024-05-09T11:17:20.887Z,24.40
2024-05-09T11:18:26.639Z,24.33
2024-05-09T11:19:36.991Z,24.28
2024-05-09T11:20:38.082Z,24.20
2024-05-09T11:21:39.238Z,24.13
2024-05-09T11:22:40.082Z,24.07
2024-05-09T11:23:40.911Z,24.01
2024-05-09T11:24:41.865Z,23.99
2024-05-09T11:25:55.547Z,23.87
2024-05-09T11:26:56.964Z,23.87
2024-05-09T11:28:01.202Z,23.91
2024-05-09T11:29:02.071Z,23.93
2024-05-09T11:30:04.230Z,23.89
2024-05-09T11:31:08.918Z,23.87
2024-05-09T11:32:12.403Z,23.92
2024-05-09T11:33:14.150Z,23.86
2024-05-09T11:34:15.088Z,23.90
2024-05-09T11:35:15.997Z,23.87
2024-05-09T11:36:16.839Z,23.86
2024-05-09T11:37:17.888Z,23.73
2024-05-09T11:38:18.842Z,23.71
2024-05-09T11:39:19.680Z,23.54
2024-05-09T11:40:25.347Z,23.41
2024-05-09T11:41:30.255Z,23.41
2024-05-09T11:42:31.200Z,23.39
2024-05-09T11:43:32.428Z,23.53
2024-05-09T11:44:33.317Z,23.51
2024-05-09T11:45:34.379Z,23.56
2024-05-09T11:46:35.305Z,23.60
2024-05-09T11:47:37.356Z,23.60
2024-05-09T11:48:38.451Z,23.63
2024-05-09T11:49:39.427Z,23.56
2024-05-09T11:50:40.316Z,23.54
2024-05-09T11:51:41.280Z,23.45
2024-05-09T11:52:42.171Z,23.49
2024-05-09T11:53:43.003Z,23.50
2024-05-09T11:54:43.881Z,23.55
2024-05-09T11:55:44.708Z,23.54
2024-05-09T11:56:45.543Z,23.37
2024-05-09T11:57:46.509Z,23.29
2024-05-09T11:58:47.434Z,23.11
2024-05-09T11:59:48.260Z,23.07
2024-05-09T12:00:49.229Z,23.18
2024-05-09T12:01:50.352Z,23.20
2024-05-09T12:02:53.093Z,23.18
2024-05-09T12:03:54.197Z,23.10
2024-05-09T12:04:55.194Z,23.18
2024-05-09T12:05:56.345Z,23.17
2024-05-09T12:06:57.317Z,23.18
2024-05-09T12:07:58.171Z,23.19
2024-05-09T12:08:59.015Z,23.18
2024-05-09T12:09:59.894Z,23.19
2024-05-09T12:11:01.106Z,23.18
2024-05-09T12:12:02.507Z,23.25
2024-05-09T12:13:05.556Z,23.20
2024-05-09T12:14:07.751Z,23.22
2024-05-09T12:15:08.601Z,23.17
2024-05-09T12:16:09.603Z,23.17
2024-05-09T12:17:10.545Z,23.18
2024-05-09T12:18:11.410Z,23.27
2024-05-09T12:19:12.793Z,23.29
2024-05-09T12:20:21.130Z,23.33
2024-05-09T12:21:26.653Z,23.32
2024-05-09T12:22:27.526Z,23.29
2024-05-09T12:23:28.395Z,23.26
2024-05-09T12:24:29.674Z,23.26
2024-05-09T12:25:30.521Z,23.14
2024-05-09T12:26:31.368Z,23.30
2024-05-09T12:27:32.261Z,23.24
2024-05-09T12:28:33.226Z,23.26
2024-05-09T12:29:36.264Z,23.31
2024-05-09T12:30:41.220Z,23.35
2024-05-09T12:31:42.846Z,23.31
2024-05-09T12:32:44.953Z,23.34
2024-05-09T12:33:46.010Z,23.36
2024-05-09T12:34:46.940Z,23.49
2024-05-09T12:35:50.713Z,23.44
2024-05-09T12:36:52.028Z,23.40
2024-05-09T12:37:52.984Z,23.42
2024-05-09T12:38:53.892Z,23.39
2024-05-09T12:39:54.840Z,23.40
2024-05-09T12:40:55.911Z,23.39
2024-05-09T12:41:56.971Z,23.38
2024-05-09T12:42:57.880Z,23.38
2024-05-09T12:43:58.729Z,23.41
2024-05-09T12:44:59.568Z,23.39
2024-05-09T12:46:02.273Z,23.36
2024-05-09T12:47:03.267Z,23.39
2024-05-09T12:48:07.008Z,23.40
2024-05-09T12:49:08.201Z,23.46
2024-05-09T12:50:18.774Z,23.37
2024-05-09T12:51:25.822Z,23.36
2024-05-09T12:52:27.488Z,23.41
2024-05-09T12:53:28.354Z,23.48
2024-05-09T12:54:30.701Z,23.46
2024-05-09T12:55:37.755Z,23.51
2024-05-09T12:56:45.588Z,23.61
2024-05-09T12:57:46.464Z,23.62
2024-05-09T12:58:47.307Z,23.59
2024-05-09T12:59:48.148Z,23.64
2024-05-09T13:00:50.322Z,23.59
2024-05-09T13:01:51.349Z,23.62
2024-05-09T13:02:52.227Z,23.63
2024-05-09T13:03:53.353Z,23.67
2024-05-09T13:04:55.835Z,23.70
2024-05-09T13:05:56.711Z,23.74
2024-05-09T13:06:57.602Z,23.71
2024-05-09T13:07:59.416Z,23.66
2024-05-09T13:09:00.304Z,23.60
2024-05-09T13:10:01.432Z,23.59
2024-05-09T13:11:02.320Z,23.61
2024-05-09T13:12:03.344Z,23.71
2024-05-09T13:13:04.318Z,23.76
2024-05-09T13:14:05.227Z,23.72
2024-05-09T13:15:06.325Z,23.74
2024-05-09T13:16:07.257Z,23.78
2024-05-09T13:17:08.189Z,23.75
2024-05-09T13:18:09.087Z,23.76
2024-05-09T13:19:09.978Z,23.63
2024-05-09T13:20:18.705Z,23.52
2024-05-09T13:21:26.459Z,23.50
2024-05-09T13:22:27.293Z,23.43
2024-05-09T13:23:28.132Z,23.44
2024-05-09T13:24:29.038Z,23.36